M I D A S
Marine Information and Data Acquisition System
Tripno 921 of the Zeeleeuw from 2005-06-24 07:29:11 to 2005-06-24 13:46:21
Back to CruiseResearch ActivitiesStationsMapUnderway DataData graphs

EquipmentUnitsComment
TimeDGPSUTC
LatitudeDGPSDM.mWGS84
LongitudeDGPSDM.mWGS84
HeadingGyrodeg 
SOGDGPSknotsSpeed over ground
COGDGPSdegCourse over ground
DepthEcho soundermeters200 kHz
Missing or incorrect values are displayed as -999
Navigation data collected by the RV Zeeleeuw from 2005-06-24 07:30:35 to 2005-06-24 15:58:47
Time Latitude Longitude Heading SOG COG Depth
2005-06-24 07:31:41 51°13.618 2°56.045 123.1 3.8 301 -999
2005-06-24 07:32:41 51°13.653 2°55.935 120.2 5.2 296 -999
2005-06-24 07:33:40 51°13.686 2°55.816 111.9 4.4 291 -999
2005-06-24 07:34:41 51°13.7 2°55.757 73.3 0.8 28 -999
2005-06-24 07:35:39 51°13.709 2°55.745 24.6 2.8 9 10.8
2005-06-24 07:36:40 51°13.775 2°55.689 329.6 5.3 326 8.1
2005-06-24 07:37:40 51°13.874 2°55.597 338.6 7.3 334 8.4
2005-06-24 07:38:40 51°13.999 2°55.516 343.8 8.4 339 10
2005-06-24 07:39:40 51°14.129 2°55.429 340.2 8.7 335 9.1
2005-06-24 07:40:40 51°14.245 2°55.29 320.1 8 315 9.6
2005-06-24 07:41:40 51°14.335 2°55.126 316.5 9 312 9
2005-06-24 07:42:40 51°14.45 2°54.905 314.1 12.4 306 9.1
2005-06-24 07:43:41 51°14.531 2°54.566 289.8 14 281 9
2005-06-24 07:44:40 51°14.475 2°54.204 250.5 14.4 247 8.7
2005-06-24 07:45:40 51°14.363 2°53.863 248 14.6 244 8.2
2005-06-24 07:46:40 51°14.233 2°53.535 239.5 14.7 237 8.2
2005-06-24 07:47:40 51°14.111 2°53.195 242.2 14.9 238 8.4
2005-06-24 07:48:40 51°13.981 2°52.855 244.7 15 240 8.9
2005-06-24 07:49:40 51°13.85 2°52.516 244.1 15.1 239 9
2005-06-24 07:50:40 51°13.717 2°52.176 242.4 15.1 238 9.2
2005-06-24 07:51:40 51°13.586 2°51.834 242.9 15.2 239 9.2
2005-06-24 07:52:40 51°13.455 2°51.493 242 15.2 237 9.4
2005-06-24 07:53:40 51°13.319 2°51.15 243 15.2 238 9.5
2005-06-24 07:54:40 51°13.184 2°50.807 242.8 15.2 238 9.6
2005-06-24 07:55:39 51°13.052 2°50.473 242.3 15.3 238 9.7
2005-06-24 07:56:40 51°12.912 2°50.123 242.4 15.3 238 9.8
2005-06-24 07:57:39 51°12.779 2°49.788 242.4 15.3 238 9.8
2005-06-24 07:58:39 51°12.645 2°49.444 242 15.3 238 9.8
2005-06-24 07:59:40 51°12.507 2°49.091 241.7 15.3 238 9.7
2005-06-24 08:00:39 51°12.376 2°48.755 241.6 15.2 238 9.7
2005-06-24 08:01:40 51°12.248 2°48.405 245.3 15 241 9.7
2005-06-24 08:02:40 51°12.123 2°48.065 244.7 15 240 9.7
2005-06-24 08:03:39 51°12.006 2°47.721 247.2 15 243 9.6
2005-06-24 08:04:40 51°11.886 2°47.362 246 15 243 9.6
2005-06-24 08:05:40 51°11.769 2°47.011 246.3 15 242 9.4
2005-06-24 08:06:39 51°11.677 2°46.653 257.4 15 252 9.6
2005-06-24 08:07:39 51°11.594 2°46.28 255.7 14.9 251 10
2005-06-24 08:08:40 51°11.51 2°45.897 257.5 15 252 10.1
2005-06-24 08:09:40 51°11.44 2°45.52 258.5 15 254 10.4
2005-06-24 08:10:39 51°11.37 2°45.147 258.4 15 253 10.4
2005-06-24 08:11:39 51°11.298 2°44.764 258.2 14.9 253 10.6
2005-06-24 08:12:40 51°11.227 2°44.378 258 15 253 10.6
2005-06-24 08:13:40 51°11.156 2°43.998 258.1 15 254 10.7
2005-06-24 08:14:40 51°11.085 2°43.62 257.9 15.1 254 10.7
2005-06-24 08:15:40 51°11.014 2°43.237 258.3 14.9 254 10.8
2005-06-24 08:16:39 51°10.947 2°42.861 260.5 15 256 10.9
2005-06-24 08:17:40 51°10.884 2°42.473 260.5 14.9 255 10.9
2005-06-24 08:18:39 51°10.824 2°42.101 259.8 14.9 256 11
2005-06-24 08:19:39 51°10.763 2°41.719 260.8 14.9 256 11.1
2005-06-24 08:20:40 51°10.701 2°41.328 261 14.8 256 11.1
2005-06-24 08:21:40 51°10.64 2°40.948 259.8 14.9 256 11.1
2005-06-24 08:22:39 51°10.581 2°40.573 260.5 14.8 256 11.5
2005-06-24 08:23:39 51°10.521 2°40.195 260.5 14.7 256 12.1
2005-06-24 08:24:40 51°10.461 2°39.813 261 14.7 257 12.8
2005-06-24 08:25:40 51°10.402 2°39.438 260.1 14.7 256 13.2
2005-06-24 08:26:40 51°10.344 2°39.057 262.6 14.6 258 13.9
2005-06-24 08:27:40 51°10.291 2°38.677 262 14.7 258 14.7
2005-06-24 08:28:39 51°10.241 2°38.306 262.3 14.8 258 14.7
2005-06-24 08:29:40 51°10.188 2°37.914 263 14.8 258 15.2
2005-06-24 08:30:40 51°10.135 2°37.531 262.4 14.8 258 16.4
2005-06-24 08:31:39 51°10.082 2°37.158 262 14.8 258 16.3
2005-06-24 08:32:39 51°10.029 2°36.775 261.7 14.7 257 16.4
2005-06-24 08:33:40 51°10 2°36.382 278.2 14.6 272 16.5
2005-06-24 08:34:39 51°10.022 2°36.003 282.3 14.5 276 16.3
2005-06-24 08:35:39 51°10.11 2°35.67 314.4 13.4 309 11.3
2005-06-24 08:36:40 51°10.29 2°35.51 355.1 12.2 352 10
2005-06-24 08:37:39 51°10.469 2°35.603 35.5 11.7 33 9.2
2005-06-24 08:38:41 51°10.624 2°35.809 43.8 11.9 39 9.2
2005-06-24 08:39:39 51°10.77 2°36.005 44.5 11.9 40 9.7
2005-06-24 08:40:41 51°10.924 2°36.217 44.5 11.8 41 10.2
2005-06-24 08:41:39 51°11.068 2°36.416 45 11.8 41 10.7
2005-06-24 08:42:41 51°11.221 2°36.627 45 11.8 41 11.1
2005-06-24 08:43:39 51°11.364 2°36.823 45.5 11.7 41 11.4
2005-06-24 08:44:39 51°11.519 2°37.017 40.6 11.7 36 11.8
2005-06-24 08:45:39 51°11.679 2°37.194 39.8 11.7 34 12
2005-06-24 08:46:39 51°11.844 2°37.367 39.1 11.8 34 11.9
2005-06-24 08:47:39 51°12.006 2°37.537 38.9 11.8 33 11.9
2005-06-24 08:48:40 51°12.173 2°37.714 39.1 11.8 34 11.8
2005-06-24 08:49:40 51°12.336 2°37.886 38.9 11.7 33 11.8
2005-06-24 08:50:40 51°12.498 2°38.058 39.4 11.7 33 11.9
2005-06-24 08:51:39 51°12.657 2°38.222 38.8 11.7 33 12.1
2005-06-24 08:52:40 51°12.825 2°38.394 39.1 11.7 33 12.2
2005-06-24 08:53:39 51°12.987 2°38.553 34.1 11.7 26 12.7
2005-06-24 08:54:39 51°13.172 2°38.657 24 11.9 13 13.1
2005-06-24 08:55:40 51°13.37 2°38.725 21 11.9 12 12.8
2005-06-24 08:56:40 51°13.565 2°38.794 21.8 12.1 13 13.5
2005-06-24 08:57:40 51°13.759 2°38.867 21.7 12 13 13.3
2005-06-24 08:58:40 51°13.954 2°38.942 22.5 11.9 13 12.4
2005-06-24 08:59:40 51°14.154 2°38.892 353.8 12.4 343 10.2
2005-06-24 09:00:40 51°14.347 2°38.749 342.1 13 331 16.1
2005-06-24 09:01:40 51°14.49 2°38.492 303.6 13.7 291 16.3
2005-06-24 09:02:40 51°14.441 2°38.127 249 14.8 245 15.5
2005-06-24 09:03:40 51°14.322 2°37.774 245.5 15.2 242 15.1
2005-06-24 09:04:40 51°14.204 2°37.417 246 15.3 243 14.4
2005-06-24 09:05:41 51°14.087 2°37.056 245.8 15.2 243 15.1
2005-06-24 09:06:39 51°13.975 2°36.707 245.9 15.1 243 16
2005-06-24 09:07:40 51°13.86 2°36.342 246 15.1 243 16.9
2005-06-24 09:08:40 51°13.749 2°35.984 245.8 15.2 244 17.2
2005-06-24 09:09:40 51°13.637 2°35.626 245.8 14.9 243 13.6
2005-06-24 09:10:39 51°13.524 2°35.278 246 14.9 243 15.6
2005-06-24 09:11:40 51°13.408 2°34.92 246.6 15 243 14.9
2005-06-24 09:12:40 51°13.295 2°34.568 246.3 14.9 243 14.5
2005-06-24 09:13:39 51°13.182 2°34.227 246 14.9 242 13.8
2005-06-24 09:14:40 51°13.064 2°33.869 246.1 14.9 242 12.7
2005-06-24 09:15:40 51°12.948 2°33.523 245.8 14.8 241 14.1
2005-06-24 09:16:40 51°12.832 2°33.177 246 14.8 241 15.8
2005-06-24 09:17:40 51°12.714 2°32.832 246.3 14.8 242 17.3
2005-06-24 09:18:40 51°12.596 2°32.485 246 15 242 19.2
2005-06-24 09:19:40 51°12.477 2°32.135 247.1 15 242 20.3
2005-06-24 09:20:40 51°12.357 2°31.783 246.4 15.1 242 21.4
2005-06-24 09:21:40 51°12.237 2°31.431 246 15.2 241 21.8
2005-06-24 09:22:40 51°12.118 2°31.074 248.4 15.2 244 22.1
2005-06-24 09:23:40 51°12.005 2°30.711 249 15.2 244 21.4
2005-06-24 09:24:40 51°11.895 2°30.348 248.5 15.2 244 22
2005-06-24 09:25:40 51°11.792 2°29.978 254.7 15.3 249 21.8
2005-06-24 09:26:40 51°11.702 2°29.598 255.5 15.3 250 22.2
2005-06-24 09:27:40 51°11.614 2°29.215 256.1 15.4 250 23.4
2005-06-24 09:28:41 51°11.528 2°28.827 256.3 15.4 251 22.8
2005-06-24 09:29:41 51°11.46 2°28.435 260.5 15.4 255 21.5
2005-06-24 09:30:41 51°11.396 2°28.039 261.2 15.4 256 21.7
2005-06-24 09:31:40 51°11.335 2°27.65 260.3 15.3 256 21.2
2005-06-24 09:32:40 51°11.274 2°27.26 260.5 15.1 256 22.3
2005-06-24 09:33:40 51°11.214 2°26.874 260.8 14.9 256 20
2005-06-24 09:34:40 51°11.155 2°26.494 260.5 14.7 256 18.3
2005-06-24 09:35:40 51°11.098 2°26.118 259.9 14.6 257 16.1
2005-06-24 09:36:40 51°11.097 2°25.739 282.8 14.1 278 13.1
2005-06-24 09:37:40 51°11.184 2°25.41 318.2 13.3 314 17.2
2005-06-24 09:38:40 51°11.374 2°25.287 4.6 12.3 357 21.9
2005-06-24 09:39:40 51°11.568 2°25.361 28.4 11.7 24 22.9
2005-06-24 09:40:40 51°11.732 2°25.526 40.9 11.6 35 25.1
2005-06-24 09:41:41 51°11.891 2°25.705 41.2 11.6 35 23.9
2005-06-24 09:42:40 51°12.047 2°25.882 41.6 11.6 36 24.4
2005-06-24 09:43:41 51°12.203 2°26.065 41.8 11.6 36 24.6
2005-06-24 09:44:40 51°12.357 2°26.243 41.7 11.5 36 24.7
2005-06-24 09:45:40 51°12.512 2°26.423 41.7 11.5 36 24.8
2005-06-24 09:46:40 51°12.667 2°26.604 41.7 11.5 37 24.6
2005-06-24 09:47:40 51°12.819 2°26.788 42.4 11.6 39 24
2005-06-24 09:48:40 51°12.972 2°26.973 42 11.6 38 24
2005-06-24 09:49:39 51°13.124 2°27.159 41.7 11.7 37 24.4
2005-06-24 09:50:40 51°13.28 2°27.348 41.9 11.5 37 24.5
2005-06-24 09:51:40 51°13.43 2°27.532 43.2 11.5 39 24.5
2005-06-24 09:52:40 51°13.578 2°27.726 43.9 11.5 39 24.8
2005-06-24 09:53:40 51°13.726 2°27.919 44.2 11.5 40 25.4
2005-06-24 09:54:40 51°13.872 2°28.113 44.5 11.4 40 25.3
2005-06-24 09:55:39 51°14.017 2°28.305 44.6 11.5 40 25.6
2005-06-24 09:56:40 51°14.167 2°28.501 43.8 11.5 39 25.6
2005-06-24 09:57:40 51°14.316 2°28.695 44.2 11.6 39 26.7
2005-06-24 09:58:39 51°14.463 2°28.883 44 11.6 39 27
2005-06-24 09:59:41 51°14.618 2°29.083 44.3 11.6 39 26.9
2005-06-24 10:00:40 51°14.767 2°29.277 44.7 11.7 39 27
2005-06-24 10:01:40 51°14.916 2°29.474 44.6 11.6 40 27.2
2005-06-24 10:02:40 51°15.065 2°29.668 44.2 11.5 39 27.3
2005-06-24 10:03:40 51°15.216 2°29.858 44.3 11.6 38 27.4
2005-06-24 10:04:41 51°15.37 2°30.05 44.2 11.7 38 27.4
2005-06-24 10:05:40 51°15.522 2°30.24 44.6 11.7 38 27.5
2005-06-24 10:06:41 51°15.677 2°30.432 44.3 11.8 38 27.7
2005-06-24 10:07:40 51°15.831 2°30.62 43.8 11.8 37 28
2005-06-24 10:08:40 51°15.986 2°30.81 44.3 11.8 38 28.2
2005-06-24 10:09:40 51°16.142 2°31 44.4 11.7 38 28
2005-06-24 10:10:39 51°16.293 2°31.186 44.2 11.8 38 28.3
2005-06-24 10:11:41 51°16.453 2°31.386 44.2 11.8 38 28.2
2005-06-24 10:12:40 51°16.604 2°31.578 44.6 11.7 39 27.9
2005-06-24 10:13:40 51°16.758 2°31.772 43.8 11.8 38 27.5
2005-06-24 10:14:40 51°16.908 2°31.97 46.2 11.7 40 27.2
2005-06-24 10:15:41 51°17.057 2°32.174 46.5 11.7 41 26.7
2005-06-24 10:16:41 51°17.202 2°32.374 45.8 11.5 40 27.1
2005-06-24 10:17:40 51°17.347 2°32.569 45.7 11.5 40 26.4
2005-06-24 10:18:40 51°17.492 2°32.765 46.3 11.5 40 26.8
2005-06-24 10:19:41 51°17.64 2°32.965 46.6 11.5 40 26.1
2005-06-24 10:20:40 51°17.782 2°33.168 51.5 11.6 46 25.7
2005-06-24 10:21:40 51°17.91 2°33.396 52.9 11.5 47 26.3
2005-06-24 10:22:41 51°18.042 2°33.624 52.4 11.6 48 25.4
2005-06-24 10:23:41 51°18.172 2°33.853 52.7 11.6 47 23.4
2005-06-24 10:24:40 51°18.302 2°34.08 52.6 11.6 48 25.9
2005-06-24 10:25:40 51°18.431 2°34.308 52.2 11.6 49 19.5
2005-06-24 10:26:40 51°18.561 2°34.538 52.2 11.7 47 23.5
2005-06-24 10:27:41 51°18.692 2°34.773 52.3 11.8 48 20.1
2005-06-24 10:28:40 51°18.817 2°35.008 55.5 11.7 52 21.8
2005-06-24 10:29:40 51°18.938 2°35.251 55 11.6 52 22.8
2005-06-24 10:30:41 51°19.059 2°35.497 55.2 11.7 52 22.8
2005-06-24 10:31:40 51°19.18 2°35.737 55.6 11.6 51 21.2
2005-06-24 10:32:41 51°19.301 2°35.976 55.1 11.3 50 22.1
2005-06-24 10:33:41 51°19.422 2°36.208 54.6 11.4 50 22.5
2005-06-24 10:34:40 51°19.54 2°36.441 55.1 11.4 51 19.3
2005-06-24 10:35:40 51°19.659 2°36.679 55.6 11.5 52 21.2
2005-06-24 10:36:41 51°19.794 2°36.895 47.7 11.5 42 21.3
2005-06-24 10:37:40 51°19.94 2°37.087 41.6 11.5 34 22.2
2005-06-24 10:38:41 51°20.104 2°37.253 39.1 11.5 32 22.4
2005-06-24 10:39:40 51°20.266 2°37.413 39.1 11.6 32 23
2005-06-24 10:40:41 51°20.428 2°37.581 40.3 11.5 33 23.4
2005-06-24 10:41:40 51°20.589 2°37.744 40.3 11.5 33 22.3
2005-06-24 10:42:40 51°20.762 2°37.87 23 11.8 11 23.8
2005-06-24 10:43:40 51°20.96 2°37.908 16.1 12.1 5 24.2
2005-06-24 10:44:41 51°21.162 2°37.934 16.6 12.1 4 25.4
2005-06-24 10:45:41 51°21.365 2°37.94 12.6 12.1 1 26
2005-06-24 10:46:40 51°21.567 2°37.947 13.5 12.2 1 26.7
2005-06-24 10:47:40 51°21.772 2°37.955 14.3 12.4 2 27.8
2005-06-24 10:48:40 51°21.977 2°37.965 13.7 12.4 2 30.1
2005-06-24 10:49:40 51°22.182 2°37.977 14.5 12.3 2 29.7
2005-06-24 10:50:41 51°22.388 2°37.992 14.6 12.3 3 30.5
2005-06-24 10:51:41 51°22.59 2°38.01 14.1 12.1 3 30.6
2005-06-24 10:52:40 51°22.787 2°38.048 17.5 11.8 16 30.1
2005-06-24 10:53:41 51°22.963 2°38.19 34.8 11.7 29 30
2005-06-24 10:54:41 51°23.124 2°38.364 46.5 11.8 43 29.8
2005-06-24 10:55:40 51°23.262 2°38.584 48.6 11.9 44 29.7
2005-06-24 10:56:41 51°23.4 2°38.812 49.3 11.9 46 27
2005-06-24 10:57:40 51°23.535 2°39.037 49.9 12 46 29
2005-06-24 10:58:40 51°23.673 2°39.266 49.3 11.9 46 27.1
2005-06-24 10:59:40 51°23.811 2°39.498 50 12 46 27.3
2005-06-24 11:00:41 51°23.95 2°39.733 50.6 12 47 28.1
2005-06-24 11:01:40 51°24.085 2°39.962 50.2 11.9 47 28.6
2005-06-24 11:02:41 51°24.223 2°40.194 49.7 12 46 26.2
2005-06-24 11:03:40 51°24.357 2°40.422 50 11.9 47 26.9
2005-06-24 11:04:40 51°24.491 2°40.653 50 11.9 46 26.7
2005-06-24 11:05:39 51°24.624 2°40.878 49.8 11.9 46 27.3
2005-06-24 11:06:41 51°24.763 2°41.116 50.7 11.9 48 27.7
2005-06-24 11:07:41 51°24.897 2°41.347 50.6 11.7 47 25.7
2005-06-24 11:08:41 51°25.033 2°41.572 49.7 11.7 46 26.2
2005-06-24 11:09:39 51°25.15 2°41.806 57.7 11.7 55 26.6
2005-06-24 11:10:41 51°25.267 2°42.067 57.1 11.7 54 26.3
2005-06-24 11:11:39 51°25.377 2°42.31 58 11.7 55 25.1
2005-06-24 11:12:41 51°25.494 2°42.569 57.3 11.8 54 24.8
2005-06-24 11:13:40 51°25.607 2°42.819 57.3 11.7 54 25.9
2005-06-24 11:14:41 51°25.722 2°43.073 57.7 11.7 54 25.8
2005-06-24 11:15:41 51°25.837 2°43.321 57.6 11.8 53 26.3
2005-06-24 11:16:41 51°25.953 2°43.569 57.5 11.7 53 26.1
2005-06-24 11:17:41 51°26.069 2°43.816 57.7 11.7 53 27.4
2005-06-24 11:18:41 51°26.186 2°44.061 56.9 11.7 52 28.3
2005-06-24 11:19:41 51°26.305 2°44.305 56.8 11.6 52 28.5
2005-06-24 11:20:41 51°26.423 2°44.549 57.6 11.6 53 27.4
2005-06-24 11:21:41 51°26.542 2°44.794 57.6 11.7 52 27.3
2005-06-24 11:22:40 51°26.621 2°45.069 72.6 11.6 68 29
2005-06-24 11:23:40 51°26.711 2°45.342 65.6 11.6 61 29
2005-06-24 11:24:41 51°26.804 2°45.615 65.6 11.7 61 29.6
2005-06-24 11:25:40 51°26.898 2°45.885 65.1 11.7 60 31.6
2005-06-24 11:26:41 51°26.977 2°46.172 71 11.7 67 31.5
2005-06-24 11:27:41 51°27.054 2°46.458 70.8 11.7 67 32.1
2005-06-24 11:28:40 51°27.13 2°46.741 69.8 11.7 66 31.4
2005-06-24 11:29:40 51°27.206 2°47.027 70.3 11.7 66 29.4
2005-06-24 11:30:41 51°27.285 2°47.316 71 11.7 68 29
2005-06-24 11:31:41 51°27.362 2°47.603 70.4 11.7 67 28.3
2005-06-24 11:32:41 51°27.441 2°47.889 70.4 11.7 66 27.9
2005-06-24 11:33:40 51°27.517 2°48.174 70.5 11.8 67 27.9
2005-06-24 11:34:40 51°27.594 2°48.462 71 11.7 67 28.1
2005-06-24 11:35:40 51°27.673 2°48.75 69.9 11.8 66 29.1
2005-06-24 11:36:40 51°27.752 2°49.038 70.8 11.8 67 26.2
2005-06-24 11:37:40 51°27.83 2°49.327 70.3 11.9 66 28.3
2005-06-24 11:38:40 51°27.909 2°49.617 70.5 11.8 67 26.7
2005-06-24 11:39:40 51°27.987 2°49.908 70.2 11.9 66 27.6
2005-06-24 11:40:40 51°28.068 2°50.199 70.5 12 66 28
2005-06-24 11:41:40 51°28.145 2°50.491 70.8 12 67 27.8
2005-06-24 11:42:41 51°28.226 2°50.787 69.9 12 66 28.4
2005-06-24 11:43:41 51°28.307 2°51.081 70.5 12 67 27.2
2005-06-24 11:44:40 51°28.368 2°51.38 82.8 12 83 28.4
2005-06-24 11:45:40 51°28.294 2°51.675 124.2 12.6 128 28
2005-06-24 11:46:41 51°28.131 2°51.898 146 13.2 151 25.7
2005-06-24 11:47:41 51°27.909 2°51.958 176 13.9 179 23.3
2005-06-24 11:48:41 51°27.684 2°51.861 206.4 14.3 207 20.4
2005-06-24 11:49:40 51°27.532 2°51.575 242.9 14.4 238 21
2005-06-24 11:50:40 51°27.405 2°51.248 241.8 14.5 238 20.5
2005-06-24 11:51:41 51°27.282 2°50.914 244.8 14.4 241 20.4
2005-06-24 11:52:40 51°27.169 2°50.58 246.9 14.3 243 21.6
2005-06-24 11:53:41 51°27.059 2°50.238 246.7 14.4 242 22
2005-06-24 11:54:39 51°26.954 2°49.911 247.2 14.3 243 22.3
2005-06-24 11:55:41 51°26.842 2°49.561 247.3 14.3 243 22.7
2005-06-24 11:56:40 51°26.735 2°49.226 247.4 14.2 244 22.6
2005-06-24 11:57:41 51°26.628 2°48.884 247.2 14.3 243 22.6
2005-06-24 11:58:41 51°26.519 2°48.547 247.1 14.2 242 22.7
2005-06-24 11:59:41 51°26.413 2°48.209 247.4 14.2 243 23.9
2005-06-24 12:00:41 51°26.306 2°47.87 247.5 14.2 243 23.5
2005-06-24 12:01:41 51°26.199 2°47.533 246.8 14.3 243 22.6
2005-06-24 12:02:41 51°26.093 2°47.195 247.5 14.2 243 24.2
2005-06-24 12:03:41 51°25.987 2°46.861 247.3 14 243 24.9
2005-06-24 12:04:41 51°25.882 2°46.526 247.1 14.1 244 26
2005-06-24 12:05:41 51°25.771 2°46.197 241.8 14 237 25.4
2005-06-24 12:06:41 51°25.624 2°45.906 230.7 14.1 228 26.2
2005-06-24 12:07:41 51°25.464 2°45.635 227.2 13.9 228 25.4
2005-06-24 12:08:41 51°25.284 2°45.402 216.2 13.8 212 24.9
2005-06-24 12:09:41 51°25.067 2°45.326 181.5 13.6 180 27.9
2005-06-24 12:10:40 51°24.845 2°45.368 166.3 13.5 170 27.7
2005-06-24 12:11:41 51°24.648 2°45.545 145.8 13.5 144 28
2005-06-24 12:12:40 51°24.472 2°45.768 143.9 13.6 142 27.8
2005-06-24 12:13:41 51°24.331 2°46.046 120.4 13.3 115 27.2
2005-06-24 12:14:41 51°24.29 2°46.384 101.6 13 99 30
2005-06-24 12:15:40 51°24.256 2°46.725 102.7 13 100 29.1
2005-06-24 12:16:41 51°24.225 2°47.074 99.4 13.1 96 29.5
2005-06-24 12:17:41 51°24.2 2°47.419 100.1 13.1 97 26.7
2005-06-24 12:18:41 51°24.186 2°47.765 95.6 13 92 23.6
2005-06-24 12:19:41 51°24.176 2°48.112 96 13 93 21.4
2005-06-24 12:20:41 51°24.163 2°48.459 97.2 12.9 94 23.2
2005-06-24 12:21:41 51°24.149 2°48.802 97.1 12.9 93 24
2005-06-24 12:22:41 51°24.134 2°49.147 97.6 12.9 95 24.7
2005-06-24 12:23:41 51°24.12 2°49.493 96.9 13 94 24.8
2005-06-24 12:24:41 51°24.097 2°49.84 101.7 13.1 97 24.2
2005-06-24 12:25:41 51°24.018 2°50.166 114.4 13.2 112 24.2
2005-06-24 12:26:41 51°23.924 2°50.485 121.5 13.4 120 24
2005-06-24 12:27:41 51°23.749 2°50.639 183.3 12.9 179 20
2005-06-24 12:28:41 51°23.574 2°50.437 224.6 13.3 219 19.3
2005-06-24 12:29:41 51°23.408 2°50.2 227.1 13.4 222 20.6
2005-06-24 12:30:41 51°23.238 2°49.968 223.5 13.4 218 17.5
2005-06-24 12:31:41 51°23.067 2°49.75 223.6 13.2 218 18.2
2005-06-24 12:32:41 51°22.883 2°49.56 211.6 13.1 207 18
2005-06-24 12:33:41 51°22.681 2°49.419 208.1 13.2 202 17.1
2005-06-24 12:34:41 51°22.479 2°49.283 209 13.1 203 23.7
2005-06-24 12:35:41 51°22.279 2°49.149 209.9 12.9 204 24.7
2005-06-24 12:36:41 51°22.081 2°49.015 209.4 12.8 202 25.8
2005-06-24 12:37:41 51°21.885 2°48.885 210.3 12.7 203 25.7
2005-06-24 12:38:41 51°21.694 2°48.753 210.9 12.4 205 25.8
2005-06-24 12:39:41 51°21.506 2°48.614 210.3 12.4 205 25
2005-06-24 12:40:40 51°21.316 2°48.482 208.3 12.6 203 23.8
2005-06-24 12:41:41 51°21.122 2°48.345 210 12.6 205 23
2005-06-24 12:42:41 51°20.931 2°48.204 210.4 12.7 204 22.3
2005-06-24 12:43:40 51°20.747 2°48.056 209.8 12.4 206 22.4
2005-06-24 12:44:41 51°20.562 2°47.904 210.5 12.3 207 22.8
2005-06-24 12:45:40 51°20.381 2°47.754 210.6 12.4 208 23.1
2005-06-24 12:46:41 51°20.197 2°47.603 210.7 12.4 208 23.5
2005-06-24 12:47:41 51°20.015 2°47.453 211 12.3 207 23.8
2005-06-24 12:48:41 51°19.832 2°47.305 209.4 12.4 206 24.1
2005-06-24 12:49:41 51°19.649 2°47.156 210.1 12.3 207 24.2
2005-06-24 12:50:41 51°19.468 2°47.008 210.8 12.2 208 24.2
2005-06-24 12:51:40 51°19.287 2°46.858 210.4 12.3 209 24
2005-06-24 12:52:41 51°19.114 2°46.683 216.1 12.3 213 24
2005-06-24 12:53:41 51°18.943 2°46.508 216 12.1 213 23.8
2005-06-24 12:54:40 51°18.772 2°46.336 215.1 12.3 212 23.7
2005-06-24 12:55:41 51°18.598 2°46.163 214.9 12.2 211 23.2
2005-06-24 12:56:41 51°18.426 2°45.992 215 12.1 212 22.3
2005-06-24 12:57:41 51°18.252 2°45.819 215.8 12.2 212 21.8
2005-06-24 12:58:41 51°18.081 2°45.649 215.6 12.2 212 21.4
2005-06-24 12:59:41 51°17.908 2°45.479 215.7 12.2 212 21
2005-06-24 13:00:41 51°17.735 2°45.309 215.1 12.2 211 20.2
2005-06-24 13:01:41 51°17.561 2°45.141 214.9 12.2 212 20.2
2005-06-24 13:02:41 51°17.389 2°44.971 215.2 12.2 211 19.1
2005-06-24 13:03:41 51°17.211 2°44.816 210.5 12.2 207 18.6
2005-06-24 13:04:41 51°17.03 2°44.669 210.6 12.2 207 18.5
2005-06-24 13:05:40 51°16.844 2°44.543 206.6 12.2 203 17.4
2005-06-24 13:06:41 51°16.649 2°44.439 202.8 12.2 199 16.7
2005-06-24 13:07:40 51°16.45 2°44.378 189.4 12.3 186 15.2
2005-06-24 13:08:41 51°16.239 2°44.355 189.4 12.4 184 14.5
2005-06-24 13:09:41 51°16.035 2°44.363 174.1 12.4 173 14
2005-06-24 13:10:41 51°15.865 2°44.561 136.7 13.4 128 15
2005-06-24 13:11:41 51°15.77 2°44.895 119.2 13.9 111 15.5
2005-06-24 13:12:41 51°15.711 2°45.258 109.2 14.2 102 17
2005-06-24 13:13:41 51°15.66 2°45.627 109.8 14.3 102 19.7
2005-06-24 13:14:41 51°15.624 2°46.006 103 14.5 97 20.5
2005-06-24 13:15:41 51°15.596 2°46.389 102.9 14.6 97 19.5
2005-06-24 13:16:41 51°15.565 2°46.777 103.2 14.6 97 18.3
2005-06-24 13:17:41 51°15.533 2°47.158 103.6 14.5 97 17
2005-06-24 13:18:41 51°15.498 2°47.533 104.5 14.5 99 14.9
2005-06-24 13:19:41 51°15.464 2°47.912 103.9 14.2 98 13.8
2005-06-24 13:20:41 51°15.433 2°48.281 103.8 14 98 13.4
2005-06-24 13:21:41 51°15.401 2°48.646 104.9 14 99 14.5
2005-06-24 13:22:41 51°15.367 2°49.014 105.1 14 98 16.1
2005-06-24 13:23:41 51°15.335 2°49.385 104.5 14.1 98 16.1
2005-06-24 13:24:41 51°15.305 2°49.757 104.3 14.1 97 16
2005-06-24 13:25:41 51°15.273 2°50.128 106.6 14.1 101 16
2005-06-24 13:26:41 51°15.217 2°50.49 111.7 14 104 15.8
2005-06-24 13:27:41 51°15.158 2°50.854 112.2 14.1 105 15.5
2005-06-24 13:28:41 51°15.099 2°51.213 111.8 14.1 105 15.3
2005-06-24 13:29:41 51°15.041 2°51.575 111.7 14.2 105 14.8
2005-06-24 13:30:40 51°14.98 2°51.936 111.6 14.3 105 14.2
2005-06-24 13:31:41 51°14.916 2°52.307 114.1 14.5 107 13.4
2005-06-24 13:32:41 51°14.849 2°52.675 115 14.5 106 13
2005-06-24 13:33:41 51°14.781 2°53.038 114.7 14.2 106 12.7
2005-06-24 13:34:41 51°14.714 2°53.399 114.4 14 107 12.7
2005-06-24 13:35:41 51°14.646 2°53.732 115.9 11.4 107 13.3
2005-06-24 13:36:41 51°14.598 2°54.03 116.8 11.7 106 14
2005-06-24 13:37:41 51°14.531 2°54.348 120.7 13.1 111 13.5
2005-06-24 13:38:41 51°14.456 2°54.674 120.4 13.1 110 13.5
2005-06-24 13:39:40 51°14.382 2°54.979 122 11.8 112 13.2
2005-06-24 13:40:41 51°14.287 2°55.213 126.7 9.7 125 13.9
2005-06-24 13:41:41 51°14.173 2°55.381 149.2 9.3 141 13.6
2005-06-24 13:42:41 51°14.049 2°55.475 157.4 7.7 155 13.7
2005-06-24 13:43:41 51°13.937 2°55.554 158.7 7.2 156 13.6
2005-06-24 13:44:40 51°13.83 2°55.634 156.6 7.2 155 13
2005-06-24 13:45:41 51°13.741 2°55.739 140.1 6.2 137 12.8
2005-06-24 13:46:40 51°13.683 2°55.842 131.1 4.8 130 12.3
2005-06-24 13:47:41 51°13.645 2°55.937 124.3 3.9 121 12.5
2005-06-24 13:48:41 51°13.616 2°56.019 119.4 3.4 120 12.5
2005-06-24 13:49:41 51°13.603 2°56.083 107.5 2.1 103 10.6
2005-06-24 13:50:40 51°13.598 2°56.108 120.4 0.6 129 9.7
2005-06-24 13:51:42 51°13.599 2°56.109 122.2 0.1 25 9.6
2005-06-24 13:52:42 51°13.599 2°56.107 129.1 0.1 240 -999
2005-06-24 13:53:42 51°13.6 2°56.108 128.2 0.1 349 -999
2005-06-24 13:54:42 51°13.601 2°56.108 126.9 0.1 264 -999
2005-06-24 13:55:42 51°13.603 2°56.107 126.4 -999 117 -999
2005-06-24 13:56:43 51°13.601 2°56.107 126.4 -999 270 -999
2005-06-24 13:57:42 51°13.6 2°56.107 126.4 -999 214 -999
2005-06-24 13:58:42 51°13.601 2°56.106 126.4 -999 306 -999
2005-06-24 13:59:42 51°13.601 2°56.108 126.3 0.1 185 -999
2005-06-24 14:00:42 51°13.599 2°56.107 126.3 -999 225 -999
2005-06-24 14:01:42 51°13.601 2°56.108 126.2 -999 213 -999
2005-06-24 14:02:42 51°13.599 2°56.108 126.2 -999 162 -999
2005-06-24 14:03:42 51°13.599 2°56.108 126.1 -999 208 -999
2005-06-24 14:04:42 51°13.599 2°56.108 126.2 0.1 347 -999
2005-06-24 14:05:42 51°13.599 2°56.108 126.3 -999 352 -999
2005-06-24 14:06:42 51°13.6 2°56.109 126.4 -999 171 -999
2005-06-24 14:07:42 51°13.6 2°56.108 125.7 0.1 349 -999
2005-06-24 14:08:42 51°13.598 2°56.108 125.7 0.1 347 -999
2005-06-24 14:09:42 51°13.597 2°56.108 125.5 -999 266 -999
2005-06-24 14:10:42 51°13.597 2°56.107 125.9 -999 173 -999
2005-06-24 14:11:42 51°13.598 2°56.107 125.5 0.1 356 -999
2005-06-24 14:12:42 51°13.598 2°56.108 125.5 -999 22 -999
2005-06-24 14:13:42 51°13.597 2°56.108 125.3 0.1 170 -999
2005-06-24 14:14:42 51°13.598 2°56.107 125.1 0.1 344 -999
2005-06-24 14:15:42 51°13.599 2°56.108 125.6 -999 179 -999
2005-06-24 14:16:42 51°13.6 2°56.108 125.5 0.1 340 -999
2005-06-24 14:17:42 51°13.599 2°56.108 124.9 0.1 160 -999
2005-06-24 14:18:42 51°13.599 2°56.108 124.9 0.1 165 -999
2005-06-24 14:19:42 51°13.599 2°56.109 124.8 -999 341 -999
2005-06-24 14:20:42 51°13.6 2°56.109 124.8 0.1 350 -999
2005-06-24 14:21:42 51°13.599 2°56.109 124.9 -999 338 -999
2005-06-24 14:22:42 51°13.599 2°56.109 124.9 0.1 331 -999
2005-06-24 14:23:42 51°13.598 2°56.109 125 -999 278 -999
2005-06-24 14:24:42 51°13.599 2°56.109 124.9 -999 148 -999
2005-06-24 14:25:42 51°13.598 2°56.109 125.1 -999 317 -999
2005-06-24 14:26:42 51°13.598 2°56.109 125 0.1 339 -999
2005-06-24 14:27:42 51°13.598 2°56.108 124.8 -999 203 -999
2005-06-24 14:28:42 51°13.598 2°56.108 124.8 -999 330 -999
2005-06-24 14:29:42 51°13.599 2°56.109 124.7 -999 28 -999
2005-06-24 14:30:42 51°13.6 2°56.109 124.5 -999 324 -999
2005-06-24 14:31:42 51°13.6 2°56.109 124.9 -999 345 -999
2005-06-24 14:32:42 51°13.6 2°56.109 124.9 -999 115 -999
2005-06-24 14:33:42 51°13.599 2°56.108 124.7 -999 241 -999
2005-06-24 14:34:42 51°13.599 2°56.108 124.6 -999 255 -999
2005-06-24 14:35:42 51°13.599 2°56.108 124.8 -999 143 -999
2005-06-24 14:36:42 51°13.599 2°56.108 124.7 -999 181 -999
2005-06-24 14:37:42 51°13.599 2°56.108 124.7 -999 326 -999
2005-06-24 14:38:42 51°13.598 2°56.108 124.7 -999 -999 -999
2005-06-24 14:39:42 51°13.599 2°56.108 124.7 -999 196 -999
2005-06-24 14:40:42 51°13.599 2°56.108 124.8 0.1 25 -999
2005-06-24 14:41:42 51°13.599 2°56.108 124.8 -999 198 -999
2005-06-24 14:42:42 51°13.599 2°56.108 124.8 0.1 23 -999
2005-06-24 14:43:42 51°13.599 2°56.108 124.9 -999 25 -999
2005-06-24 14:44:42 51°13.598 2°56.108 125.1 0.1 217 -999
2005-06-24 14:45:42 51°13.598 2°56.108 124.8 -999 242 -999
2005-06-24 14:46:42 51°13.598 2°56.108 125.2 -999 38 -999
2005-06-24 14:47:42 51°13.598 2°56.108 125 -999 347 -999
2005-06-24 14:48:42 51°13.599 2°56.107 124.8 0.1 208 -999
2005-06-24 14:49:42 51°13.599 2°56.107 125 -999 247 -999
2005-06-24 14:50:42 51°13.6 2°56.108 124.9 0.1 31 -999
2005-06-24 14:51:42 51°13.599 2°56.107 124.6 -999 178 -999
2005-06-24 14:52:42 51°13.599 2°56.107 124.8 -999 199 -999
2005-06-24 14:53:42 51°13.6 2°56.107 124.4 -999 340 -999
2005-06-24 14:54:42 51°13.599 2°56.107 125.1 -999 13 -999
2005-06-24 14:55:42 51°13.599 2°56.107 124.2 0.1 201 -999
2005-06-24 14:56:42 51°13.599 2°56.107 124.8 -999 189 -999
2005-06-24 14:57:42 51°13.599 2°56.107 125.3 -999 207 -999
2005-06-24 14:58:42 51°13.598 2°56.107 125.5 0.1 204 -999
2005-06-24 14:59:42 51°13.598 2°56.106 125.7 0.1 215 -999
2005-06-24 15:00:42 51°13.599 2°56.107 125.7 -999 321 -999
2005-06-24 15:01:42 51°13.6 2°56.108 125.5 -999 215 -999
2005-06-24 15:02:42 51°13.601 2°56.108 125.7 -999 356 -999
2005-06-24 15:03:42 51°13.599 2°56.109 125.9 -999 352 -999
2005-06-24 15:04:42 51°13.599 2°56.109 125.6 -999 201 -999
2005-06-24 15:05:42 51°13.599 2°56.109 125.7 -999 266 -999
2005-06-24 15:06:42 51°13.599 2°56.109 125.9 -999 219 -999
2005-06-24 15:07:42 51°13.599 2°56.108 125.3 0.1 206 -999
2005-06-24 15:08:42 51°13.599 2°56.108 125.9 -999 221 -999
2005-06-24 15:09:42 51°13.599 2°56.108 126.1 -999 248 -999
2005-06-24 15:10:42 51°13.598 2°56.108 126.1 -999 350 -999
2005-06-24 15:11:42 51°13.598 2°56.109 126.1 -999 193 -999
2005-06-24 15:12:42 51°13.597 2°56.109 126.3 -999 306 -999
2005-06-24 15:13:42 51°13.597 2°56.108 126.2 -999 234 -999
2005-06-24 15:14:42 51°13.597 2°56.108 126.4 0.1 225 -999
2005-06-24 15:15:42 51°13.597 2°56.108 126 -999 235 -999
2005-06-24 15:16:42 51°13.598 2°56.108 126.1 -999 268 -999
2005-06-24 15:17:42 51°13.598 2°56.108 125.8 -999 220 -999
2005-06-24 15:18:42 51°13.597 2°56.109 126.3 -999 213 -999
2005-06-24 15:19:42 51°13.596 2°56.108 126.9 -999 177 -999
2005-06-24 15:20:42 51°13.596 2°56.107 126.8 -999 226 -999
2005-06-24 15:21:42 51°13.596 2°56.107 127 -999 147 -999
2005-06-24 15:22:42 51°13.597 2°56.107 126.8 -999 5 -999
2005-06-24 15:23:42 51°13.597 2°56.107 126.4 0.1 202 -999
2005-06-24 15:24:42 51°13.599 2°56.107 126.1 0.1 28 -999
2005-06-24 15:25:42 51°13.598 2°56.108 125.9 0.1 226 -999
2005-06-24 15:26:42 51°13.597 2°56.108 126.9 -999 271 -999
2005-06-24 15:27:42 51°13.597 2°56.108 127 -999 75 -999
2005-06-24 15:28:42 51°13.597 2°56.108 127.1 0.1 220 -999
2005-06-24 15:29:42 51°13.597 2°56.107 126.7 -999 277 -999
2005-06-24 15:30:42 51°13.598 2°56.107 126 -999 339 -999
2005-06-24 15:31:42 51°13.598 2°56.108 126.2 -999 209 -999
2005-06-24 15:32:42 51°13.598 2°56.108 126.7 -999 232 -999
2005-06-24 15:33:42 51°13.598 2°56.108 127.4 -999 356 -999
2005-06-24 15:34:42 51°13.597 2°56.109 127.2 -999 256 -999
2005-06-24 15:35:42 51°13.598 2°56.109 127.2 -999 334 -999
2005-06-24 15:36:42 51°13.598 2°56.109 127 -999 126 -999
2005-06-24 15:37:42 51°13.598 2°56.109 126.6 -999 253 -999
2005-06-24 15:38:42 51°13.598 2°56.108 126.4 -999 201 -999
2005-06-24 15:39:42 51°13.598 2°56.108 125.5 -999 121 -999
2005-06-24 15:40:42 51°13.598 2°56.108 125.8 -999 249 -999
2005-06-24 15:41:42 51°13.599 2°56.108 126.2 -999 203 -999
2005-06-24 15:42:42 51°13.599 2°56.108 126.6 -999 163 -999
2005-06-24 15:43:42 51°13.599 2°56.108 127.4 -999 100 -999
2005-06-24 15:44:42 51°13.599 2°56.109 126.7 -999 19 -999
2005-06-24 15:45:42 51°13.599 2°56.109 126.4 -999 355 -999
2005-06-24 15:46:42 51°13.599 2°56.108 127.2 -999 347 -999
2005-06-24 15:47:42 51°13.599 2°56.108 126.2 -999 59 -999
2005-06-24 15:48:42 51°13.599 2°56.108 126.8 -999 208 -999
2005-06-24 15:49:42 51°13.599 2°56.107 126.5 -999 253 -999
2005-06-24 15:50:42 51°13.599 2°56.107 126.9 -999 132 -999
2005-06-24 15:51:42 51°13.599 2°56.107 126.8 0.1 36 -999
2005-06-24 15:52:42 51°13.599 2°56.108 126.1 -999 291 -999
2005-06-24 15:53:42 51°13.598 2°56.107 125.5 0.1 209 -999
2005-06-24 15:54:42 51°13.598 2°56.107 126.2 -999 116 -999
2005-06-24 15:55:42 51°13.598 2°56.107 126.8 0.1 20 -999
2005-06-24 15:56:42 51°13.598 2°56.107 126.9 -999 283 -999
2005-06-24 15:57:42 51°13.598 2°56.108 126.7 0.1 348 -999
2005-06-24 15:58:42 51°13.598 2°56.107 126.9 0.1 305 -999